Time;durP1;ratioP1;P1;durP2;ratioP2;P2;SDS_P1;SDS_P2;PMS_P1;PMS_P2;Temp;Humidity;BMP_temperature;BMP_pressure;BME280_temperature;BME280_humidity;BME280_pressure;Samples;Min_cycle;Max_cycle;Signal;HPM_P1;HPM_P2
2021/09/29 00:02:00;;;;;;;3.13;0.40;;;;;;;;;;5000844;28;20066;-61
2021/09/29 00:04:26;;;;;;;5.80;0.57;;;;;;;;;;4999002;28;20030;-61
2021/09/29 00:06:51;;;;;;;4.32;0.50;;;;;;;;;;5000191;28;20499;-61
2021/09/29 00:09:17;;;;;;;2.33;0.57;;;;;;;;;;4995278;28;20485;-62
2021/09/29 00:11:43;;;;;;;2.30;0.63;;;;;;;;;;4997444;28;20030;-61
2021/09/29 00:14:09;;;;;;;4.82;0.70;;;;;;;;;;5001334;28;20305;-61
2021/09/29 00:16:34;;;;;;;3.83;0.60;;;;;;;;;;5003520;28;20567;-61
2021/09/29 00:19:00;;;;;;;2.78;0.60;;;;;;;;;;5000593;28;20481;-61
2021/09/29 00:21:25;;;;;;;5.03;0.50;;;;;;;;;;4999322;28;20465;-62
2021/09/29 00:23:51;;;;;;;7.90;0.80;;;;;;;;;;4996937;28;20038;-62
2021/09/29 00:26:16;;;;;;;2.25;0.80;;;;;;;;;;5002414;28;20034;-62
2021/09/29 00:28:42;;;;;;;6.78;0.85;;;;;;;;;;4999623;28;20026;-62
2021/09/29 00:31:22;;;;;;;4.68;0.63;;;;;;;;;;5004086;28;20066;-61
2021/09/29 00:33:50;;;;;;;1.70;0.50;;;;;;;;;;4998993;28;20451;-61
2021/09/29 00:36:15;;;;;;;5.95;0.70;;;;;;;;;;4995284;28;20121;-60
2021/09/29 00:38:41;;;;;;;3.75;0.52;;;;;;;;;;5000596;28;20025;-61
2021/09/29 00:41:06;;;;;;;1.95;0.50;;;;;;;;;;5002718;28;20042;-61
2021/09/29 00:43:32;;;;;;;3.17;0.65;;;;;;;;;;4996681;28;20038;-61
2021/09/29 00:45:57;;;;;;;3.72;0.50;;;;;;;;;;5000877;28;20042;-62
2021/09/29 00:48:23;;;;;;;4.10;0.70;;;;;;;;;;5001028;28;20116;-61
2021/09/29 00:50:49;;;;;;;1.75;0.52;;;;;;;;;;4994115;28;20517;-61
2021/09/29 00:53:16;;;;;;;4.25;0.90;;;;;;;;;;4996385;28;20032;-61
2021/09/29 00:55:42;;;;;;;5.07;0.88;;;;;;;;;;4997818;28;20041;-62
2021/09/29 00:58:08;;;;;;;2.63;0.57;;;;;;;;;;4996760;28;20105;-62
2021/09/29 01:00:33;;;;;;;5.60;0.80;;;;;;;;;;4997856;28;20678;-61
2021/09/29 01:03:00;;;;;;;2.92;0.52;;;;;;;;;;5004879;28;20211;-61
2021/09/29 01:05:25;;;;;;;2.17;0.30;;;;;;;;;;5005347;28;20555;-61
2021/09/29 01:08:13;;;;;;;3.10;0.50;;;;;;;;;;5005459;28;20140;-61
2021/09/29 01:11:12;;;;;;;2.13;0.35;;;;;;;;;;4999307;28;20076;-61
2021/09/29 01:14:08;;;;;;;2.28;0.98;;;;;;;;;;5005987;28;20118;-60
2021/09/29 01:16:38;;;;;;;3.67;0.40;;;;;;;;;;5003620;28;20037;-61
2021/09/29 01:19:30;;;;;;;2.92;0.40;;;;;;;;;;5003903;28;20033;-62
2021/09/29 01:22:08;;;;;;;14.52;0.80;;;;;;;;;;4999864;28;20135;-61
2021/09/29 01:24:46;;;;;;;6.72;0.63;;;;;;;;;;5001684;28;20026;-61
2021/09/29 01:27:14;;;;;;;4.55;0.70;;;;;;;;;;5003031;28;20086;-61
2021/09/29 01:29:40;;;;;;;5.32;0.57;;;;;;;;;;5004205;28;20051;-62
2021/09/29 01:32:06;;;;;;;3.55;0.68;;;;;;;;;;5000273;28;20091;-62
2021/09/29 01:34:32;;;;;;;7.22;0.35;;;;;;;;;;5005024;28;20042;-60
2021/09/29 01:36:59;;;;;;;4.65;0.63;;;;;;;;;;5003192;28;20520;-61
2021/09/29 01:39:26;;;;;;;1.33;0.40;;;;;;;;;;5005116;28;20051;-61
2021/09/29 01:41:53;;;;;;;5.47;0.80;;;;;;;;;;4999308;28;20045;-61
2021/09/29 01:44:18;;;;;;;6.20;0.60;;;;;;;;;;5004333;28;20515;-61
2021/09/29 01:46:44;;;;;;;3.53;1.05;;;;;;;;;;5004987;28;20481;-61
2021/09/29 01:49:37;;;;;;;2.00;0.40;;;;;;;;;;5003971;28;20057;-61
2021/09/29 01:52:04;;;;;;;;;;;;;;;;;;5003346;28;20025;-61
2021/09/29 01:54:30;;;;;;;1.25;0.20;;;;;;;;;;5005016;28;19996;-61
2021/09/29 01:56:56;;;;;;;6.38;0.73;;;;;;;;;;5004008;28;20029;-61
2021/09/29 01:59:25;;;;;;;3.85;0.47;;;;;;;;;;5003067;28;20045;-61
2021/09/29 02:01:53;;;;;;;6.35;0.73;;;;;;;;;;5004075;28;20065;-61
2021/09/29 02:04:19;;;;;;;1.70;0.43;;;;;;;;;;5004984;28;20340;-60
2021/09/29 02:06:52;;;;;;;1.02;0.40;;;;;;;;;;5004225;28;20040;-61
2021/09/29 02:09:19;;;;;;;2.90;0.50;;;;;;;;;;5001910;28;20021;-62
2021/09/29 02:11:46;;;;;;;2.63;0.50;;;;;;;;;;5004319;28;20500;-62
2021/09/29 02:14:19;;;;;;;1.65;0.20;;;;;;;;;;5004027;28;20037;-61
2021/09/29 02:16:46;;;;;;;5.22;0.55;;;;;;;;;;5004124;28;20060;-61
2021/09/29 02:19:12;;;;;;;4.18;0.50;;;;;;;;;;5003574;28;20040;-61
2021/09/29 02:21:38;;;;;;;6.45;0.40;;;;;;;;;;5005525;28;20022;-61
2021/09/29 02:24:05;;;;;;;5.95;0.60;;;;;;;;;;5005006;28;20657;-61
2021/09/29 02:26:30;;;;;;;5.20;0.52;;;;;;;;;;5004315;28;20022;-61
2021/09/29 02:28:56;;;;;;;1.67;0.20;;;;;;;;;;5003291;28;20032;-61
2021/09/29 02:31:22;;;;;;;7.13;0.60;;;;;;;;;;5004916;28;20045;-61
2021/09/29 02:33:47;;;;;;;4.35;0.38;;;;;;;;;;5002330;28;20546;-61
2021/09/29 02:36:13;;;;;;;4.75;0.60;;;;;;;;;;5002198;28;20946;-61
2021/09/29 02:38:38;;;;;;;5.00;0.43;;;;;;;;;;5004275;28;20099;-61
2021/09/29 02:41:04;;;;;;;3.95;0.65;;;;;;;;;;5003399;28;20021;-61
2021/09/29 02:43:30;;;;;;;6.60;0.80;;;;;;;;;;5003377;28;20077;-62
2021/09/29 02:45:55;;;;;;;3.65;0.63;;;;;;;;;;5001824;28;20030;-61
2021/09/29 02:48:21;;;;;;;6.82;1.05;;;;;;;;;;5003869;28;20642;-61
2021/09/29 02:50:46;;;;;;;5.47;0.45;;;;;;;;;;5004530;28;20038;-61
2021/09/29 02:53:12;;;;;;;5.80;0.32;;;;;;;;;;4999639;28;20583;-61
2021/09/29 02:55:37;;;;;;;8.35;0.63;;;;;;;;;;5002076;28;20037;-61
2021/09/29 02:58:02;;;;;;;5.28;0.32;;;;;;;;;;5000620;28;20034;-61
2021/09/29 03:00:28;;;;;;;4.18;0.50;;;;;;;;;;5001553;28;20408;-61
2021/09/29 03:02:53;;;;;;;4.80;0.32;;;;;;;;;;5004229;28;20113;-61
2021/09/29 03:05:19;;;;;;;6.25;0.40;;;;;;;;;;5001847;28;20405;-60
2021/09/29 03:07:44;;;;;;;4.85;0.50;;;;;;;;;;5005607;28;20030;-60
2021/09/29 03:10:10;;;;;;;6.00;0.28;;;;;;;;;;5005290;28;20091;-60
2021/09/29 03:12:35;;;;;;;6.00;0.38;;;;;;;;;;5003753;28;20028;-61
2021/09/29 03:15:01;;;;;;;11.38;1.67;;;;;;;;;;5004936;28;20037;-61
2021/09/29 03:17:26;;;;;;;6.00;0.60;;;;;;;;;;5005204;28;20037;-60
2021/09/29 03:19:52;;;;;;;7.10;0.50;;;;;;;;;;5007063;28;20033;-60
2021/09/29 03:22:17;;;;;;;4.38;0.30;;;;;;;;;;5006865;28;20030;-60
2021/09/29 03:24:43;;;;;;;6.20;1.30;;;;;;;;;;5007224;28;20096;-60
2021/09/29 03:27:09;;;;;;;6.43;0.60;;;;;;;;;;5005064;28;20030;-60
2021/09/29 03:29:35;;;;;;;5.85;0.45;;;;;;;;;;5003019;28;20499;-60
2021/09/29 03:32:01;;;;;;;8.68;0.75;;;;;;;;;;5007499;28;20029;-61
2021/09/29 03:34:26;;;;;;;4.78;0.50;;;;;;;;;;5006065;28;22379;-60
2021/09/29 03:36:52;;;;;;;4.38;0.20;;;;;;;;;;5004796;28;20065;-59
2021/09/29 03:39:17;;;;;;;3.78;0.50;;;;;;;;;;5005187;28;20022;-61
2021/09/29 03:41:43;;;;;;;3.00;0.47;;;;;;;;;;5005469;28;20029;-60
2021/09/29 03:44:08;;;;;;;5.63;0.52;;;;;;;;;;5007501;28;20041;-60
2021/09/29 03:46:34;;;;;;;4.00;0.88;;;;;;;;;;5003627;28;20040;-60
2021/09/29 03:49:00;;;;;;;5.43;0.38;;;;;;;;;;5006199;28;20058;-59
2021/09/29 03:51:25;;;;;;;9.10;0.95;;;;;;;;;;5006560;28;20033;-60
2021/09/29 03:53:51;;;;;;;4.85;0.43;;;;;;;;;;5002671;28;20401;-60
2021/09/29 03:56:17;;;;;;;4.07;0.60;;;;;;;;;;5005951;28;20068;-61
2021/09/29 03:58:42;;;;;;;8.25;0.95;;;;;;;;;;5005801;28;20034;-60
2021/09/29 04:01:08;;;;;;;7.75;1.23;;;;;;;;;;5004125;28;20025;-61
2021/09/29 04:03:33;;;;;;;4.65;0.65;;;;;;;;;;5006484;28;20576;-60
2021/09/29 04:05:59;;;;;;;6.13;0.93;;;;;;;;;;5006081;28;20484;-60
2021/09/29 04:08:24;;;;;;;4.57;0.70;;;;;;;;;;5003124;28;20018;-60
2021/09/29 04:10:55;;;;;;;6.10;0.63;;;;;;;;;;5006221;28;20630;-60
2021/09/29 04:13:21;;;;;;;1.40;0.50;;;;;;;;;;5007325;28;20034;-60
2021/09/29 04:15:47;;;;;;;3.03;0.38;;;;;;;;;;5005927;28;20403;-60
2021/09/29 04:18:12;;;;;;;2.88;0.50;;;;;;;;;;5004251;28;20092;-61
2021/09/29 04:20:39;;;;;;;5.22;0.63;;;;;;;;;;5006685;28;20037;-60
2021/09/29 04:23:06;;;;;;;4.65;0.38;;;;;;;;;;5002058;28;20113;-60
2021/09/29 04:25:32;;;;;;;4.03;0.70;;;;;;;;;;5000949;28;20032;-60
2021/09/29 04:27:57;;;;;;;5.75;0.70;;;;;;;;;;5005008;28;20037;-60
2021/09/29 04:30:23;;;;;;;9.52;0.70;;;;;;;;;;5006257;28;20251;-60
2021/09/29 04:32:48;;;;;;;4.50;0.60;;;;;;;;;;5005129;28;20043;-59
2021/09/29 04:35:14;;;;;;;2.20;0.35;;;;;;;;;;5006659;28;20026;-60
2021/09/29 04:37:39;;;;;;;5.53;0.47;;;;;;;;;;5003496;28;20061;-60
2021/09/29 04:40:06;;;;;;;4.75;0.80;;;;;;;;;;5005817;28;20525;-60
2021/09/29 04:42:32;;;;;;;2.67;0.55;;;;;;;;;;5004091;28;20107;-60
2021/09/29 04:44:58;;;;;;;2.28;0.47;;;;;;;;;;5003281;28;20064;-59
2021/09/29 04:47:23;;;;;;;6.28;0.93;;;;;;;;;;5002549;28;20139;-59
2021/09/29 04:49:49;;;;;;;3.70;0.57;;;;;;;;;;5003391;28;20025;-60
2021/09/29 04:52:14;;;;;;;2.33;0.57;;;;;;;;;;5005899;28;20112;-60
2021/09/29 04:54:41;;;;;;;5.65;0.65;;;;;;;;;;5000174;28;20030;-60
2021/09/29 04:57:08;;;;;;;5.60;0.93;;;;;;;;;;5004699;28;20099;-60
2021/09/29 04:59:35;;;;;;;7.88;0.68;;;;;;;;;;5006184;28;20572;-60
2021/09/29 05:02:03;;;;;;;8.25;1.13;;;;;;;;;;5005402;28;20120;-60
2021/09/29 05:04:28;;;;;;;1.90;0.32;;;;;;;;;;5004297;28;20029;-59
2021/09/29 05:06:54;;;;;;;5.05;0.70;;;;;;;;;;5004654;28;20032;-60
2021/09/29 05:09:20;;;;;;;5.32;0.68;;;;;;;;;;5002673;28;20037;-60
2021/09/29 05:11:50;;;;;;;8.60;0.68;;;;;;;;;;5005820;28;20099;-60
2021/09/29 05:14:16;;;;;;;4.00;0.65;;;;;;;;;;5004400;28;20034;-59
2021/09/29 05:16:41;;;;;;;5.55;0.80;;;;;;;;;;5001821;28;20029;-60
2021/09/29 05:19:07;;;;;;;5.60;0.70;;;;;;;;;;5002192;28;20034;-59
2021/09/29 05:21:34;;;;;;;4.07;0.68;;;;;;;;;;5005742;28;20040;-59
2021/09/29 05:24:00;;;;;;;2.75;0.60;;;;;;;;;;5005017;28;20075;-59
2021/09/29 05:26:25;;;;;;;5.28;0.50;;;;;;;;;;5005570;28;20319;-59
2021/09/29 05:28:51;;;;;;;5.60;0.68;;;;;;;;;;5002362;28;20657;-59
2021/09/29 05:31:18;;;;;;;9.60;0.70;;;;;;;;;;5005509;28;20050;-59
2021/09/29 05:33:44;;;;;;;3.75;0.70;;;;;;;;;;5005428;28;20119;-60
2021/09/29 05:36:10;;;;;;;5.85;1.00;;;;;;;;;;5003368;28;20088;-59
2021/09/29 05:38:35;;;;;;;3.90;0.65;;;;;;;;;;5004078;28;20030;-61
2021/09/29 05:41:01;;;;;;;12.10;1.58;;;;;;;;;;5004712;28;20477;-61
2021/09/29 05:43:26;;;;;;;9.25;0.95;;;;;;;;;;5002403;28;20526;-60
2021/09/29 05:45:53;;;;;;;5.32;1.25;;;;;;;;;;5000341;28;20053;-60
2021/09/29 05:48:19;;;;;;;6.38;0.82;;;;;;;;;;5003948;28;20029;-60
2021/09/29 05:50:45;;;;;;;6.95;0.85;;;;;;;;;;5003595;28;20034;-60
2021/09/29 05:53:13;;;;;;;7.00;0.93;;;;;;;;;;5004888;28;20033;-60
2021/09/29 05:55:39;;;;;;;9.50;1.45;;;;;;;;;;5003803;28;20061;-60
2021/09/29 05:58:04;;;;;;;4.90;1.10;;;;;;;;;;5004237;28;20551;-60
2021/09/29 06:00:30;;;;;;;12.95;1.17;;;;;;;;;;4996857;28;20026;-60
2021/09/29 06:02:55;;;;;;;11.95;0.80;;;;;;;;;;5003607;28;20049;-60
2021/09/29 06:05:21;;;;;;;5.03;1.13;;;;;;;;;;5003428;28;20528;-60
2021/09/29 06:07:48;;;;;;;6.22;0.82;;;;;;;;;;5005868;28;20113;-59
2021/09/29 06:10:14;;;;;;;8.85;1.00;;;;;;;;;;5005316;28;20036;-60
2021/09/29 06:12:40;;;;;;;6.32;0.80;;;;;;;;;;5001922;28;20041;-59
2021/09/29 06:15:07;;;;;;;7.03;0.93;;;;;;;;;;5003384;28;20038;-59
2021/09/29 06:17:43;;;;;;;7.72;0.50;;;;;;;;;;5003864;28;20079;-59
2021/09/29 06:20:09;;;;;;;10.25;1.10;;;;;;;;;;4998294;28;20038;-59
2021/09/29 06:22:38;;;;;;;10.30;1.50;;;;;;;;;;5004044;28;20109;-59
2021/09/29 06:25:06;;;;;;;13.27;1.05;;;;;;;;;;5004960;28;20034;-60
2021/09/29 06:27:32;;;;;;;11.43;1.45;;;;;;;;;;5005138;28;20030;-59
2021/09/29 06:29:57;;;;;;;9.32;1.00;;;;;;;;;;4998281;28;20037;-59
2021/09/29 06:32:23;;;;;;;7.18;1.00;;;;;;;;;;5001938;28;20041;-59
2021/09/29 06:34:48;;;;;;;10.55;1.45;;;;;;;;;;4997626;28;20038;-59
2021/09/29 06:37:14;;;;;;;9.25;1.20;;;;;;;;;;4995018;28;20065;-59
2021/09/29 06:39:39;;;;;;;5.78;1.42;;;;;;;;;;4999633;28;20041;-60
2021/09/29 06:42:05;;;;;;;8.20;1.10;;;;;;;;;;5010987;28;20069;-60
2021/09/29 06:44:31;;;;;;;11.95;2.00;;;;;;;;;;5006454;28;20100;-61
2021/09/29 06:46:57;;;;;;;11.15;1.45;;;;;;;;;;5009426;28;20435;-60
2021/09/29 06:49:22;;;;;;;7.38;1.00;;;;;;;;;;5003021;28;20468;-57
2021/09/29 06:51:48;;;;;;;8.65;1.55;;;;;;;;;;5002282;28;20112;-57
2021/09/29 06:54:14;;;;;;;5.55;1.20;;;;;;;;;;5006018;28;20038;-57
2021/09/29 06:56:39;;;;;;;6.85;0.80;;;;;;;;;;5008556;28;20443;-57
2021/09/29 06:59:05;;;;;;;3.47;0.85;;;;;;;;;;5006635;28;20072;-57
2021/09/29 07:01:30;;;;;;;8.38;0.82;;;;;;;;;;5008199;28;20087;-58
2021/09/29 07:03:56;;;;;;;4.32;0.80;;;;;;;;;;5008280;28;20042;-57
2021/09/29 07:06:21;;;;;;;6.40;0.80;;;;;;;;;;5008968;28;20034;-57
2021/09/29 07:08:47;;;;;;;11.13;1.13;;;;;;;;;;5006425;28;20034;-58
2021/09/29 07:11:13;;;;;;;4.30;0.65;;;;;;;;;;5007126;28;20072;-58
2021/09/29 07:13:39;;;;;;;10.85;0.93;;;;;;;;;;5000836;28;20041;-57
2021/09/29 07:16:04;;;;;;;4.72;1.30;;;;;;;;;;5008841;28;20033;-57
2021/09/29 07:18:31;;;;;;;7.18;0.90;;;;;;;;;;5008940;28;20239;-57
2021/09/29 07:20:58;;;;;;;8.30;0.85;;;;;;;;;;5007001;28;20036;-57
2021/09/29 07:23:24;;;;;;;6.88;0.95;;;;;;;;;;5008013;28;20037;-59
2021/09/29 07:25:50;;;;;;;7.35;0.82;;;;;;;;;;5009185;28;20026;-58
2021/09/29 07:28:16;;;;;;;10.10;0.80;;;;;;;;;;5004749;28;20184;-58
2021/09/29 07:30:45;;;;;;;13.25;0.88;;;;;;;;;;5006342;28;20116;-58
2021/09/29 07:33:12;;;;;;;10.13;1.00;;;;;;;;;;5007894;28;20488;-58
2021/09/29 07:35:40;;;;;;;13.07;1.10;;;;;;;;;;5000023;28;20687;-58
2021/09/29 07:38:06;;;;;;;8.15;1.20;;;;;;;;;;4997675;28;20436;-58
2021/09/29 07:40:31;;;;;;;18.27;1.58;;;;;;;;;;4987784;28;20041;-58
2021/09/29 07:42:57;;;;;;;10.23;0.63;;;;;;;;;;5005013;28;20207;-57
2021/09/29 07:45:24;;;;;;;10.95;1.02;;;;;;;;;;5007997;28;20502;-58
2021/09/29 07:47:50;;;;;;;12.80;1.17;;;;;;;;;;5007446;28;20484;-58
2021/09/29 07:50:17;;;;;;;17.45;1.02;;;;;;;;;;4993243;28;20025;-57
2021/09/29 07:52:43;;;;;;;13.55;1.13;;;;;;;;;;5002898;28;20018;-57
2021/09/29 07:55:11;;;;;;;12.05;1.00;;;;;;;;;;5003257;28;20030;-58
2021/09/29 07:57:37;;;;;;;10.68;1.40;;;;;;;;;;4998180;28;20177;-57
2021/09/29 08:00:04;;;;;;;13.48;1.15;;;;;;;;;;4988455;28;20022;-59
2021/09/29 08:02:30;;;;;;;3.28;0.70;;;;;;;;;;5002473;28;20124;-57
2021/09/29 08:04:59;;;;;;;7.30;0.98;;;;;;;;;;5000977;28;20103;-57
2021/09/29 08:07:25;;;;;;;6.25;0.88;;;;;;;;;;5004705;28;20098;-57
2021/09/29 08:09:50;;;;;;;10.18;0.77;;;;;;;;;;4996508;28;20118;-56
2021/09/29 08:12:16;;;;;;;7.38;0.90;;;;;;;;;;5001976;28;20133;-57
2021/09/29 08:14:41;;;;;;;11.27;0.70;;;;;;;;;;5005438;28;20037;-56
2021/09/29 08:17:07;;;;;;;10.23;0.93;;;;;;;;;;5005561;28;20042;-56
2021/09/29 08:19:34;;;;;;;7.03;0.75;;;;;;;;;;4993576;28;20041;-57
2021/09/29 08:22:03;;;;;;;5.05;0.82;;;;;;;;;;5003476;28;20335;-57
2021/09/29 08:24:37;;;;;;;12.73;1.30;;;;;;;;;;5002745;28;20029;-56
2021/09/29 08:27:07;;;;;;;12.55;1.55;;;;;;;;;;5005225;28;20030;-56
2021/09/29 08:37:30;;;;;;;11.68;1.00;;;;;;;;;;5002048;28;20054;-56
2021/09/29 08:42:34;;;;;;;7.50;1.08;;;;;;;;;;5004973;28;20045;-57
2021/09/29 08:45:10;;;;;;;10.82;1.00;;;;;;;;;;5002462;28;20026;-56
2021/09/29 08:47:51;;;;;;;5.50;1.10;;;;;;;;;;5004495;28;20029;-57
2021/09/29 08:50:24;;;;;;;5.35;0.80;;;;;;;;;;4989550;28;20018;-56
2021/09/29 08:53:15;;;;;;;8.57;1.00;;;;;;;;;;5004799;28;20021;-56
2021/09/29 09:14:43;;;;;;;9.25;1.05;;;;;;;;;;4999850;28;20564;-56
2021/09/29 09:15:22;;;;;;;7.78;1.35;;;;;;;;;;5006876;28;20040;-55
2021/09/29 09:17:47;;;;;;;5.38;0.93;;;;;;;;;;5002521;28;20064;-56
2021/09/29 09:20:23;;;;;;;9.32;0.95;;;;;;;;;;4992141;28;20041;-56
2021/09/29 09:22:52;;;;;;;8.70;1.17;;;;;;;;;;5005878;28;20033;-55
2021/09/29 09:25:32;;;;;;;7.07;0.60;;;;;;;;;;5005557;28;20034;-56
2021/09/29 09:27:58;;;;;;;9.98;1.58;;;;;;;;;;5006618;28;20152;-56
2021/09/29 09:30:35;;;;;;;12.15;2.20;;;;;;;;;;4990710;28;20169;-56
2021/09/29 09:33:01;;;;;;;7.38;0.73;;;;;;;;;;5001544;28;20033;-56
2021/09/29 09:35:40;;;;;;;10.30;1.15;;;;;;;;;;5004893;28;20100;-55
2021/09/29 09:38:18;;;;;;;10.73;0.80;;;;;;;;;;4993920;28;20141;-55
2021/09/29 09:40:45;;;;;;;10.93;1.08;;;;;;;;;;4983640;28;20025;-56
2021/09/29 09:43:12;;;;;;;12.73;1.90;;;;;;;;;;5005127;28;22186;-56
2021/09/29 09:45:47;;;;;;;6.50;1.20;;;;;;;;;;5004433;28;20515;-57
2021/09/29 09:48:26;;;;;;;9.10;1.15;;;;;;;;;;5004218;28;20041;-56
2021/09/29 09:51:05;;;;;;;5.53;0.80;;;;;;;;;;4988364;28;20069;-56
2021/09/29 09:53:33;;;;;;;6.15;0.82;;;;;;;;;;5005551;28;20026;-56
2021/09/29 09:55:58;;;;;;;9.80;1.10;;;;;;;;;;5001036;28;20568;-56
2021/09/29 09:58:24;;;;;;;8.45;1.15;;;;;;;;;;5003129;28;20036;-55
2021/09/29 10:00:59;;;;;;;6.70;1.02;;;;;;;;;;4991408;28;20538;-56
2021/09/29 10:03:28;;;;;;;10.90;1.10;;;;;;;;;;5003594;28;20536;-56
2021/09/29 10:05:54;;;;;;;14.77;2.50;;;;;;;;;;5004544;28;20088;-57
2021/09/29 10:08:25;;;;;;;6.63;1.85;;;;;;;;;;5005550;28;20957;-56
2021/09/29 10:10:59;;;;;;;13.43;1.55;;;;;;;;;;4989042;28;20048;-56
2021/09/29 10:27:54;;;;;;;7.63;1.45;;;;;;;;;;4998278;28;20100;-56
2021/09/29 10:30:54;;;;;;;12.07;1.42;;;;;;;;;;4989107;28;20034;-56
2021/09/29 10:33:22;;;;;;;9.57;1.65;;;;;;;;;;5000621;28;20099;-57
2021/09/29 10:41:54;;;;;;;12.18;2.13;;;;;;;;;;4993849;28;20096;-56
2021/09/29 10:44:23;;;;;;;11.38;1.05;;;;;;;;;;4998805;28;20034;-57
2021/09/29 10:46:54;;;;;;;7.10;1.50;;;;;;;;;;4997918;28;20175;-56
2021/09/29 10:49:49;;;;;;;11.38;1.40;;;;;;;;;;4988875;28;20040;-56
2021/09/29 11:04:23;;;;;;;11.93;1.27;;;;;;;;;;5001229;28;20099;-57
2021/09/29 12:12:14;;;;;;;8.18;1.08;;;;;;;;;;5005589;28;20037;-56
2021/09/29 12:14:40;;;;;;;7.05;1.90;;;;;;;;;;5003637;28;20306;-57
2021/09/29 12:17:05;;;;;;;6.00;1.08;;;;;;;;;;5005353;28;20513;-57
2021/09/29 12:19:39;;;;;;;10.35;0.73;;;;;;;;;;5008553;28;20030;-56
2021/09/29 12:22:15;;;;;;;9.82;1.20;;;;;;;;;;5001550;28;20026;-57
2021/09/29 12:25:06;;;;;;;7.13;1.25;;;;;;;;;;5006639;28;20109;-57
2021/09/29 12:33:17;;;;;;;6.95;1.00;;;;;;;;;;5007932;28;20057;-57
2021/09/29 12:35:51;;;;;;;6.13;1.00;;;;;;;;;;4997660;28;20033;-57
2021/09/29 12:38:17;;;;;;;5.78;0.95;;;;;;;;;;5001709;28;20046;-57
2021/09/29 12:40:44;;;;;;;3.83;0.82;;;;;;;;;;5003253;28;20033;-57
2021/09/29 12:43:14;;;;;;;8.70;1.00;;;;;;;;;;5004268;28;20507;-57
2021/09/29 12:45:43;;;;;;;11.70;1.30;;;;;;;;;;5001818;28;20110;-57
2021/09/29 12:48:10;;;;;;;10.30;1.10;;;;;;;;;;5000929;28;20374;-57
2021/09/29 12:55:46;;;;;;;5.57;1.08;;;;;;;;;;4998702;28;20073;-57
2021/09/29 12:58:12;;;;;;;5.75;0.82;;;;;;;;;;4999318;28;21049;-57
2021/09/29 13:00:37;;;;;;;7.25;1.13;;;;;;;;;;5002937;28;20488;-57
2021/09/29 13:03:05;;;;;;;9.27;1.20;;;;;;;;;;5003192;28;20342;-57
2021/09/29 13:05:31;;;;;;;8.00;1.10;;;;;;;;;;5004581;28;20034;-57
2021/09/29 13:07:57;;;;;;;7.38;1.42;;;;;;;;;;5002404;28;20084;-57
2021/09/29 13:10:23;;;;;;;4.35;0.98;;;;;;;;;;5005172;28;20108;-57
2021/09/29 13:12:51;;;;;;;10.13;1.23;;;;;;;;;;5000685;28;20064;-57
2021/09/29 13:15:20;;;;;;;8.32;1.33;;;;;;;;;;4999134;28;20042;-57
2021/09/29 13:17:48;;;;;;;6.78;1.20;;;;;;;;;;5006402;28;20091;-57
2021/09/29 13:20:22;;;;;;;8.50;1.30;;;;;;;;;;5002853;28;20481;-57
2021/09/29 13:22:57;;;;;;;8.02;0.85;;;;;;;;;;5004087;28;20084;-57
2021/09/29 13:38:41;;;;;;;4.88;0.73;;;;;;;;;;5001224;28;20049;-57
2021/09/29 13:41:06;;;;;;;7.88;0.75;;;;;;;;;;5006994;28;20033;-57
2021/09/29 13:43:32;;;;;;;6.90;1.00;;;;;;;;;;5006839;28;20471;-57
2021/09/29 13:45:57;;;;;;;8.00;1.60;;;;;;;;;;5007096;28;20043;-57
2021/09/29 13:48:23;;;;;;;5.57;1.23;;;;;;;;;;5004225;28;20030;-57
2021/09/29 13:50:48;;;;;;;9.20;0.82;;;;;;;;;;4999025;28;20029;-57
2021/09/29 13:53:14;;;;;;;6.03;0.90;;;;;;;;;;5006025;28;20124;-57
2021/09/29 13:55:41;;;;;;;9.65;1.15;;;;;;;;;;5000248;28;20030;-57
2021/09/29 13:58:14;;;;;;;4.97;0.90;;;;;;;;;;4991670;28;20044;-58
2021/09/29 14:30:34;;;;;;;11.40;1.15;;;;;;;;;;5001024;28;20045;-57
2021/09/29 14:33:05;;;;;;;4.65;1.00;;;;;;;;;;5002825;28;20022;-58
2021/09/29 14:35:34;;;;;;;3.70;0.75;;;;;;;;;;5006401;28;20014;-58
2021/09/29 14:38:00;;;;;;;4.38;0.55;;;;;;;;;;5004521;28;20132;-57
2021/09/29 14:40:25;;;;;;;4.82;0.90;;;;;;;;;;4995065;28;20401;-58
2021/09/29 14:42:51;;;;;;;4.35;0.70;;;;;;;;;;4998027;28;20038;-57
2021/09/29 14:45:19;;;;;;;4.55;0.70;;;;;;;;;;5003904;28;20108;-58
2021/09/29 14:47:46;;;;;;;5.40;1.15;;;;;;;;;;5005950;28;20038;-58
2021/09/29 14:50:12;;;;;;;4.82;0.75;;;;;;;;;;4995901;28;20409;-58
2021/09/29 14:52:37;;;;;;;5.18;0.95;;;;;;;;;;5000456;28;20028;-58
2021/09/29 14:55:03;;;;;;;6.88;1.25;;;;;;;;;;4998172;28;20230;-58
2021/09/29 14:57:29;;;;;;;5.43;0.60;;;;;;;;;;4999429;28;20026;-58
2021/09/29 14:59:54;;;;;;;10.65;1.40;;;;;;;;;;5006432;28;20045;-58
2021/09/29 15:02:20;;;;;;;4.18;0.75;;;;;;;;;;5007422;28;20034;-57
2021/09/29 15:04:46;;;;;;;8.23;0.80;;;;;;;;;;5007999;28;20048;-58
2021/09/29 15:07:12;;;;;;;9.13;0.60;;;;;;;;;;5004404;28;20029;-58
2021/09/29 15:09:38;;;;;;;5.22;1.17;;;;;;;;;;5009725;28;20064;-58
2021/09/29 15:12:04;;;;;;;8.02;0.93;;;;;;;;;;5007100;28;20109;-58
2021/09/29 15:17:06;;;;;;;8.88;1.02;;;;;;;;;;5009825;28;20282;-57
2021/09/29 15:51:39;;;;;;;3.85;0.70;;;;;;;;;;5005839;28;20052;-58
2021/09/29 16:02:05;;;;;;;5.68;0.73;;;;;;;;;;5005730;28;20036;-58
2021/09/29 16:07:10;;;;;;;4.73;0.50;;;;;;;;;;5005797;28;20524;-58
2021/09/29 16:30:51;;;;;;;4.65;0.68;;;;;;;;;;5006461;28;20037;-58
2021/09/29 16:36:02;;;;;;;6.35;0.95;;;;;;;;;;4993968;28;20114;-58
2021/09/29 16:38:28;;;;;;;2.13;0.60;;;;;;;;;;4995026;28;20081;-58
2021/09/29 16:40:54;;;;;;;11.10;0.80;;;;;;;;;;5008441;28;20967;-58
2021/09/29 16:43:19;;;;;;;6.30;0.55;;;;;;;;;;5002688;28;20435;-58
2021/09/29 16:45:46;;;;;;;6.63;0.93;;;;;;;;;;5006788;28;20034;-58
2021/09/29 16:48:16;;;;;;;2.83;0.70;;;;;;;;;;5005797;28;20032;-58
2021/09/29 16:51:33;;;;;;;4.30;1.00;;;;;;;;;;5006920;28;20041;-57
2021/09/29 16:53:32;;;;;;;5.78;0.60;;;;;;;;;;5010572;28;20122;-57
2021/09/29 16:55:59;;;;;;;6.78;0.90;;;;;;;;;;4996027;28;20025;-58
2021/09/29 16:58:29;;;;;;;11.40;1.10;;;;;;;;;;5006071;28;20038;-58
2021/09/29 17:01:12;;;;;;;9.68;0.85;;;;;;;;;;5006623;28;20488;-57
2021/09/29 17:03:38;;;;;;;3.30;0.50;;;;;;;;;;5003116;28;20046;-57
2021/09/29 17:06:05;;;;;;;3.72;1.23;;;;;;;;;;5003670;28;20274;-57
2021/09/29 17:08:31;;;;;;;4.38;0.80;;;;;;;;;;5004837;28;20053;-57
2021/09/29 17:11:00;;;;;;;3.85;0.60;;;;;;;;;;5006347;28;20069;-57
2021/09/29 17:13:36;;;;;;;5.15;0.73;;;;;;;;;;5008027;28;20030;-58
2021/09/29 17:16:11;;;;;;;4.43;0.65;;;;;;;;;;5006542;28;20223;-57
2021/09/29 17:18:37;;;;;;;3.05;0.60;;;;;;;;;;5007561;28;20522;-58
2021/09/29 17:21:04;;;;;;;7.55;0.80;;;;;;;;;;5007557;28;20040;-57
2021/09/29 17:23:33;;;;;;;5.15;1.00;;;;;;;;;;5003370;28;20033;-58
2021/09/29 17:25:58;;;;;;;7.28;0.75;;;;;;;;;;5005467;28;20029;-58
2021/09/29 17:28:25;;;;;;;8.57;1.10;;;;;;;;;;5005829;28;20036;-58
2021/09/29 17:30:54;;;;;;;3.97;0.70;;;;;;;;;;5004285;28;20038;-58
2021/09/29 17:33:28;;;;;;;9.65;1.15;;;;;;;;;;5005603;28;20030;-58
2021/09/29 17:52:32;;;;;;;2.83;0.95;;;;;;;;;;5006986;28;20044;-57
2021/09/29 17:54:58;;;;;;;7.40;1.23;;;;;;;;;;5001671;28;20519;-57
2021/09/29 17:57:26;;;;;;;5.00;1.20;;;;;;;;;;5005088;28;20033;-57
2021/09/29 17:59:53;;;;;;;6.03;0.93;;;;;;;;;;4969516;28;20038;-57
2021/09/29 18:02:31;;;;;;;4.38;1.38;;;;;;;;;;4999642;28;20041;-57
2021/09/29 18:04:56;;;;;;;4.30;0.63;;;;;;;;;;5003838;28;20068;-57
2021/09/29 18:09:49;;;;;;;4.75;0.98;;;;;;;;;;5002920;28;20037;-57
2021/09/29 18:12:15;;;;;;;3.67;0.75;;;;;;;;;;5006081;28;20045;-56
2021/09/29 18:14:40;;;;;;;6.28;1.23;;;;;;;;;;5005891;28;20096;-57
2021/09/29 18:17:06;;;;;;;3.53;1.10;;;;;;;;;;5003947;28;20065;-57
2021/09/29 18:19:33;;;;;;;4.93;1.25;;;;;;;;;;5006196;28;20034;-57
2021/09/29 18:21:58;;;;;;;4.25;0.95;;;;;;;;;;5004755;28;20695;-58
2021/09/29 18:24:25;;;;;;;2.50;1.00;;;;;;;;;;5004650;28;20300;-58
2021/09/29 18:26:51;;;;;;;6.47;1.20;;;;;;;;;;5009562;28;20022;-57
2021/09/29 18:29:20;;;;;;;3.45;1.10;;;;;;;;;;5004638;28;20061;-57
2021/09/29 18:31:46;;;;;;;5.18;1.05;;;;;;;;;;5004971;28;20037;-57
2021/09/29 18:34:13;;;;;;;6.22;1.20;;;;;;;;;;5003090;28;20080;-57
2021/09/29 18:36:41;;;;;;;6.25;0.90;;;;;;;;;;5003349;28;20037;-57
2021/09/29 18:39:07;;;;;;;4.88;1.13;;;;;;;;;;5003653;28;20050;-57
2021/09/29 18:41:35;;;;;;;5.13;1.13;;;;;;;;;;5004845;28;20030;-57
2021/09/29 18:44:04;;;;;;;3.47;1.40;;;;;;;;;;5006800;28;20234;-57
2021/09/29 18:46:32;;;;;;;8.02;1.48;;;;;;;;;;5003059;28;20488;-58
2021/09/29 18:48:59;;;;;;;4.65;1.58;;;;;;;;;;5006396;28;20058;-57
2021/09/29 18:51:24;;;;;;;11.20;2.45;;;;;;;;;;5002205;28;20038;-57
2021/09/29 18:54:13;;;;;;;4.40;1.38;;;;;;;;;;5003701;28;20074;-56
2021/09/29 19:07:37;;;;;;;5.30;1.35;;;;;;;;;;5003801;28;20504;-58
2021/09/29 19:10:04;;;;;;;2.67;1.02;;;;;;;;;;5002094;28;20030;-57
2021/09/29 19:12:31;;;;;;;5.10;1.10;;;;;;;;;;5004609;28;20044;-58
2021/09/29 19:14:57;;;;;;;8.60;1.30;;;;;;;;;;5005377;28;20037;-57
2021/09/29 19:17:24;;;;;;;4.22;1.05;;;;;;;;;;5004515;28;20042;-57
2021/09/29 19:19:50;;;;;;;4.82;1.15;;;;;;;;;;5003945;28;20778;-58
2021/09/29 19:22:16;;;;;;;6.93;1.00;;;;;;;;;;5004016;28;20539;-58
2021/09/29 19:24:42;;;;;;;7.90;1.40;;;;;;;;;;5002360;28;20042;-57